createdAt,value
2022-08-19T17:12:15.954Z,100193.56
2022-08-19T17:17:28.316Z,100192.81
2022-08-19T17:22:37.100Z,100190.97
2022-08-19T17:27:45.321Z,100199.00
2022-08-19T17:32:52.011Z,100206.00
2022-08-19T17:44:50.490Z,100240.50
2022-08-19T17:49:58.265Z,100255.13
2022-08-19T17:55:05.802Z,100254.50
2022-08-19T18:00:16.278Z,100265.78
2022-08-19T18:05:29.963Z,100270.00
2022-08-19T18:10:38.250Z,100278.47
2022-08-19T18:15:47.678Z,100282.88
2022-08-19T18:20:54.866Z,100285.66
2022-08-19T18:26:01.169Z,100284.94
2022-08-19T18:31:09.488Z,100287.19
2022-08-19T18:42:32.289Z,100270.16
2022-08-19T18:47:57.670Z,100272.34
2022-08-19T18:53:05.626Z,100262.78
2022-08-19T18:58:12.438Z,100269.34
2022-08-19T19:03:20.784Z,100272.34
2022-08-19T19:08:27.530Z,100271.13
2022-08-19T19:13:35.155Z,100270.59
2022-08-19T19:18:43.571Z,100273.34
2022-08-19T19:23:50.906Z,100284.31
2022-08-19T19:28:57.919Z,100279.97
2022-08-19T19:34:07.215Z,100283.00
2022-08-19T19:39:46.591Z,100273.50
2022-08-19T19:44:56.687Z,100289.31
2022-08-19T19:50:21.132Z,100280.56
2022-08-19T19:55:29.441Z,100281.66
2022-08-19T20:00:36.622Z,100281.41
2022-08-19T20:05:44.903Z,100290.69
2022-08-19T20:10:55.477Z,100293.13
2022-08-19T20:16:04.961Z,100313.63
2022-08-19T20:21:14.537Z,100318.03
2022-08-19T20:26:33.593Z,100309.25
2022-08-19T20:31:57.949Z,100306.25
2022-08-19T20:37:09.778Z,100309.00
2022-08-19T20:42:16.838Z,100315.28
2022-08-19T20:47:24.993Z,100305.75
2022-08-19T20:52:33.552Z,100318.28
2022-08-19T20:57:40.694Z,100315.56
2022-08-19T21:02:48.290Z,100312.31
2022-08-19T21:07:57.272Z,100314.47
2022-08-19T21:13:05.689Z,100330.84
2022-08-19T21:18:13.310Z,100317.22
2022-08-19T21:23:25.439Z,100322.13
2022-08-19T21:28:36.362Z,100320.22
2022-08-19T21:33:43.214Z,100311.50
2022-08-19T21:38:52.665Z,100311.22
2022-08-19T21:43:58.891Z,100308.47
2022-08-19T21:49:05.580Z,100317.75
2022-08-19T21:54:14.182Z,100314.75
2022-08-19T21:59:21.389Z,100323.19
2022-08-19T22:04:28.499Z,100345.00
2022-08-19T22:09:36.604Z,100375.03
2022-08-19T22:14:43.665Z,100390.81
2022-08-19T22:19:50.619Z,100393.53
2022-08-19T22:25:06.767Z,100408.00
2022-08-19T22:30:18.051Z,100433.09
2022-08-19T22:35:28.033Z,100464.44
2022-08-19T22:40:39.942Z,100458.44
2022-08-19T22:45:48.534Z,100430.03
2022-08-19T22:51:13.914Z,100448.84
2022-08-19T22:56:21.978Z,100425.69
2022-08-19T23:01:30.677Z,100411.50
2022-08-19T23:06:41.476Z,100426.75
2022-08-19T23:11:50.349Z,100425.34
2022-08-19T23:16:59.103Z,100421.25
2022-08-19T23:22:06.450Z,100413.81
2022-08-19T23:27:31.598Z,100424.44
2022-08-19T23:32:38.285Z,100419.50
2022-08-19T23:37:44.759Z,100408.06
2022-08-19T23:42:53.004Z,100410.75
2022-08-19T23:47:59.988Z,100409.63
2022-08-19T23:53:06.879Z,100404.16
2022-08-19T23:58:21.412Z,100414.75
